createdAt,value
2019-04-10T00:04:45.247Z,6.58
2019-04-10T00:07:17.882Z,5.62
2019-04-10T00:09:45.527Z,6.35
2019-04-10T00:12:15.747Z,6.10
2019-04-10T00:14:44.992Z,5.75
2019-04-10T00:17:14.169Z,5.30
2019-04-10T00:19:43.638Z,6.05
2019-04-10T00:22:13.801Z,6.05
2019-04-10T00:24:42.864Z,5.83
2019-04-10T00:27:12.451Z,6.42
2019-04-10T00:29:42.541Z,5.65
2019-04-10T00:32:11.949Z,4.53
2019-04-10T00:34:42.045Z,4.55
2019-04-10T00:37:22.042Z,4.97
2019-04-10T00:39:42.593Z,7.42
2019-04-10T00:42:12.580Z,5.67
2019-04-10T00:44:44.609Z,5.00
2019-04-10T00:47:14.726Z,7.08
2019-04-10T00:49:44.081Z,3.70
2019-04-10T00:52:14.275Z,5.42
2019-04-10T00:54:43.557Z,5.05
2019-04-10T00:57:12.893Z,3.70
2019-04-10T00:59:42.192Z,5.20
2019-04-10T01:02:12.145Z,3.17
2019-04-10T01:04:41.241Z,6.90
2019-04-10T01:07:10.715Z,5.70
2019-04-10T01:09:41.577Z,6.08
2019-04-10T01:12:11.844Z,6.10
2019-04-10T01:14:42.147Z,4.75
2019-04-10T01:17:11.772Z,6.53
2019-04-10T01:19:41.856Z,6.50
2019-04-10T01:22:10.978Z,5.78
2019-04-10T01:24:40.185Z,4.15
2019-04-10T01:27:09.760Z,4.87
2019-04-10T01:29:39.803Z,3.90
2019-04-10T01:32:09.767Z,6.97
2019-04-10T01:34:38.970Z,3.58
2019-04-10T01:37:08.301Z,6.78
2019-04-10T01:39:38.079Z,4.22
2019-04-10T01:42:08.191Z,5.47
2019-04-10T01:44:38.592Z,5.15
2019-04-10T01:47:07.914Z,3.58
2019-04-10T01:49:37.879Z,6.20
2019-04-10T01:52:07.489Z,6.40
2019-04-10T01:54:37.478Z,7.30
2019-04-10T01:57:06.890Z,5.20
2019-04-10T01:59:40.666Z,8.03
2019-04-10T02:02:14.835Z,6.45
2019-04-10T02:04:44.146Z,5.92
2019-04-10T02:07:13.899Z,3.80
2019-04-10T02:09:43.504Z,7.72
2019-04-10T02:12:13.001Z,5.72
2019-04-10T02:14:42.570Z,5.92
2019-04-10T02:17:12.570Z,6.58
2019-04-10T02:19:42.658Z,6.72
2019-04-10T02:22:12.041Z,5.33
2019-04-10T02:24:41.113Z,7.22
2019-04-10T02:27:10.152Z,7.05
2019-04-10T02:29:39.874Z,7.12
2019-04-10T02:32:10.327Z,7.87
2019-04-10T02:34:41.307Z,5.10
2019-04-10T02:37:11.014Z,6.62
2019-04-10T02:39:46.433Z,3.72
2019-04-10T02:42:10.974Z,5.47
2019-04-10T02:44:41.506Z,7.47
2019-04-10T02:47:12.755Z,8.70
2019-04-10T02:49:42.491Z,7.72
2019-04-10T02:52:12.890Z,4.10
2019-04-10T02:54:43.605Z,6.12
2019-04-10T02:57:13.556Z,6.30
2019-04-10T02:59:43.133Z,9.93
2019-04-10T03:02:13.904Z,10.20
2019-04-10T03:04:44.416Z,10.13
2019-04-10T03:07:13.451Z,6.97
2019-04-10T03:09:58.892Z,9.68
2019-04-10T03:12:14.517Z,9.05
2019-04-10T03:14:46.950Z,7.87
2019-04-10T03:17:15.590Z,7.60
2019-04-10T03:19:45.540Z,4.40
2019-04-10T03:22:14.898Z,4.45
2019-04-10T03:24:44.369Z,3.30
2019-04-10T03:27:14.233Z,7.25
2019-04-10T03:29:44.885Z,5.42
2019-04-10T03:32:36.277Z,5.87
2019-04-10T03:35:22.778Z,5.62
2019-04-10T03:37:52.915Z,7.37
2019-04-10T03:40:22.211Z,7.42
2019-04-10T03:42:53.044Z,7.12
2019-04-10T03:45:22.380Z,5.55
2019-04-10T03:47:51.572Z,7.08
2019-04-10T03:50:20.657Z,6.50
2019-04-10T03:52:51.604Z,11.08
2019-04-10T03:55:21.030Z,9.90
2019-04-10T03:57:51.867Z,9.73
2019-04-10T04:00:22.435Z,7.50
2019-04-10T04:02:51.916Z,7.15
2019-04-10T04:05:21.098Z,7.28
2019-04-10T04:07:50.696Z,5.78
2019-04-10T04:10:20.481Z,8.15
2019-04-10T04:12:49.712Z,6.12
2019-04-10T04:15:19.860Z,6.05
2019-04-10T04:17:48.993Z,3.27
2019-04-10T04:20:18.996Z,5.45
2019-04-10T04:22:49.394Z,9.00
2019-04-10T04:25:18.584Z,4.47
2019-04-10T04:27:47.548Z,8.35
2019-04-10T04:30:16.983Z,6.33
2019-04-10T04:32:46.205Z,7.40
2019-04-10T04:35:15.414Z,5.80
2019-04-10T04:37:44.555Z,4.25
2019-04-10T04:40:13.705Z,6.55
2019-04-10T04:42:42.778Z,7.25
2019-04-10T04:45:12.754Z,7.25
2019-04-10T04:47:41.769Z,8.33
2019-04-10T04:50:11.823Z,6.87
2019-04-10T04:52:41.187Z,7.58
2019-04-10T04:55:14.136Z,7.60
2019-04-10T04:57:43.177Z,8.03
2019-04-10T05:00:13.184Z,8.00
2019-04-10T05:02:42.688Z,8.83
2019-04-10T05:05:11.877Z,8.00
2019-04-10T05:07:41.704Z,5.30
2019-04-10T05:10:11.190Z,10.03
2019-04-10T05:12:40.884Z,10.88
2019-04-10T05:15:11.233Z,10.40
2019-04-10T05:17:41.452Z,4.60
2019-04-10T05:20:11.181Z,6.37
2019-04-10T05:22:41.523Z,6.92
2019-04-10T05:25:11.106Z,9.45
2019-04-10T05:27:41.287Z,3.98
2019-04-10T05:30:10.752Z,4.75
2019-04-10T05:32:40.409Z,6.92
2019-04-10T05:35:10.107Z,6.03
2019-04-10T05:37:40.094Z,7.58
2019-04-10T05:40:09.882Z,7.45
2019-04-10T05:42:39.515Z,4.85
2019-04-10T05:45:09.230Z,4.95
2019-04-10T05:47:38.796Z,4.17
2019-04-10T05:50:08.514Z,5.90
2019-04-10T05:52:37.523Z,5.47
2019-04-10T05:55:08.421Z,6.08
2019-04-10T05:57:37.881Z,5.37
2019-04-10T06:00:11.064Z,4.92
2019-04-10T06:02:41.789Z,4.35
2019-04-10T06:05:11.353Z,6.67
2019-04-10T06:07:41.313Z,7.72
2019-04-10T06:10:10.899Z,6.12
2019-04-10T06:12:39.857Z,6.95
2019-04-10T06:15:09.170Z,6.42
2019-04-10T06:17:38.589Z,3.25
2019-04-10T06:20:09.183Z,5.72
2019-04-10T06:22:38.870Z,3.58
2019-04-10T06:25:11.100Z,2.98
2019-04-10T06:27:38.894Z,5.28
2019-04-10T06:30:09.941Z,4.85
2019-04-10T06:32:39.745Z,5.10
2019-04-10T06:35:09.485Z,1.80
2019-04-10T06:37:40.042Z,6.35
2019-04-10T06:40:17.049Z,6.08
2019-04-10T06:42:47.504Z,5.80
2019-04-10T06:45:12.682Z,6.50
2019-04-10T06:47:42.383Z,6.20
2019-04-10T06:50:11.273Z,5.95
2019-04-10T06:52:40.993Z,5.42
2019-04-10T06:55:11.278Z,4.80
2019-04-10T06:57:49.180Z,5.65
2019-04-10T07:00:14.827Z,5.97
2019-04-10T07:02:44.386Z,5.95
2019-04-10T07:05:14.636Z,5.53
2019-04-10T07:07:51.308Z,5.83
2019-04-10T07:10:25.671Z,5.55
2019-04-10T07:12:45.747Z,5.22
2019-04-10T07:15:19.115Z,4.85
2019-04-10T07:17:45.769Z,5.55
2019-04-10T07:20:17.933Z,9.23
2019-04-10T07:22:47.214Z,6.53
2019-04-10T07:25:16.617Z,4.87
2019-04-10T07:27:45.876Z,5.80
2019-04-10T07:30:17.825Z,6.20
2019-04-10T07:32:48.983Z,5.92
2019-04-10T07:35:21.442Z,7.22
2019-04-10T07:37:51.606Z,8.40
2019-04-10T07:40:18.756Z,5.83
2019-04-10T07:42:48.521Z,7.65
2019-04-10T07:45:18.257Z,7.72
2019-04-10T07:47:47.994Z,8.23
2019-04-10T07:50:18.173Z,5.87
2019-04-10T07:52:47.895Z,6.65
2019-04-10T07:55:16.938Z,6.40
2019-04-10T07:57:47.735Z,5.17
2019-04-10T08:00:16.644Z,5.78
2019-04-10T08:02:46.920Z,6.15
2019-04-10T08:05:16.675Z,4.92
2019-04-10T08:07:45.808Z,5.08
2019-04-10T08:10:15.727Z,7.60
2019-04-10T08:12:49.098Z,7.20
2019-04-10T08:15:15.368Z,6.72
2019-04-10T08:17:44.460Z,7.33
2019-04-10T08:20:15.496Z,6.42
2019-04-10T08:22:44.875Z,10.58
2019-04-10T08:25:14.269Z,8.65
2019-04-10T08:27:43.802Z,7.55
2019-04-10T08:30:12.881Z,6.95
2019-04-10T08:32:54.923Z,5.70
2019-04-10T08:35:13.287Z,7.70
2019-04-10T08:37:43.063Z,7.35
2019-04-10T08:40:13.445Z,6.87
2019-04-10T08:42:45.786Z,7.37
2019-04-10T08:45:13.680Z,7.67
2019-04-10T08:47:42.627Z,7.55
2019-04-10T08:50:11.924Z,6.40
2019-04-10T08:52:41.115Z,5.67
2019-04-10T08:55:11.288Z,5.80
2019-04-10T08:57:40.186Z,5.45
2019-04-10T09:00:10.213Z,5.10
2019-04-10T09:02:40.264Z,6.00
2019-04-10T09:05:09.335Z,5.92
2019-04-10T09:07:38.347Z,7.37
2019-04-10T09:10:07.720Z,7.05
2019-04-10T09:12:36.851Z,5.15
2019-04-10T09:15:07.812Z,4.10
2019-04-10T09:17:39.660Z,6.45
2019-04-10T09:20:10.771Z,4.00
2019-04-10T09:23:04.560Z,4.17
2019-04-10T09:25:13.163Z,6.70
2019-04-10T09:27:42.890Z,5.67
2019-04-10T09:30:12.880Z,5.75
2019-04-10T09:32:42.386Z,4.70
2019-04-10T09:35:12.125Z,5.40
2019-04-10T09:37:42.068Z,5.10
2019-04-10T09:40:11.938Z,4.45
2019-04-10T09:42:41.749Z,4.97
2019-04-10T09:45:11.833Z,4.78
2019-04-10T09:47:41.739Z,5.35
2019-04-10T09:50:11.320Z,5.55
2019-04-10T09:52:40.417Z,5.03
2019-04-10T09:55:09.554Z,3.52
2019-04-10T09:57:38.400Z,4.42
2019-04-10T10:00:10.426Z,5.58
2019-04-10T10:02:39.956Z,5.58
2019-04-10T10:05:08.896Z,5.62
2019-04-10T10:07:38.974Z,5.00
2019-04-10T10:10:08.830Z,6.25
2019-04-10T10:12:38.669Z,4.95
2019-04-10T10:15:09.485Z,4.92
2019-04-10T10:17:39.276Z,5.17
2019-04-10T10:20:08.888Z,4.85
2019-04-10T10:22:38.962Z,4.58
2019-04-10T10:25:09.600Z,4.83
2019-04-10T10:27:38.614Z,5.28
2019-04-10T10:30:09.478Z,4.83
2019-04-10T10:32:42.307Z,3.75
2019-04-10T10:35:15.043Z,4.25
2019-04-10T10:37:50.480Z,5.10
2019-04-10T10:40:19.569Z,5.53
2019-04-10T10:42:48.750Z,4.40
2019-04-10T10:45:18.644Z,4.75
2019-04-10T10:47:48.602Z,5.03
2019-04-10T10:50:17.624Z,5.58
2019-04-10T10:52:46.611Z,4.30
2019-04-10T10:55:15.665Z,5.70
2019-04-10T10:57:44.592Z,4.85
2019-04-10T11:00:15.457Z,4.10
2019-04-10T11:02:45.348Z,4.05
2019-04-10T11:05:14.843Z,4.83
2019-04-10T11:07:43.825Z,4.67
2019-04-10T11:10:13.027Z,5.10
2019-04-10T11:12:42.380Z,4.75
2019-04-10T11:15:12.333Z,4.62
2019-04-10T11:17:44.630Z,4.25
2019-04-10T11:20:15.181Z,5.22
2019-04-10T11:22:47.316Z,4.75
2019-04-10T11:25:16.586Z,5.67
2019-04-10T11:27:45.569Z,5.12
2019-04-10T11:30:15.983Z,4.83
2019-04-10T11:32:46.244Z,4.15
2019-04-10T11:35:15.709Z,3.65
2019-04-10T11:37:49.251Z,4.30
2019-04-10T11:40:17.970Z,4.03
2019-04-10T11:42:47.104Z,3.75
2019-04-10T11:45:19.118Z,4.12
2019-04-10T11:47:50.784Z,3.92
2019-04-10T11:50:18.893Z,3.40
2019-04-10T11:52:52.524Z,3.92
2019-04-10T11:55:20.996Z,3.87
2019-04-10T11:57:51.549Z,3.65
2019-04-10T12:00:30.784Z,4.42
2019-04-10T12:03:00.786Z,4.50
2019-04-10T12:05:31.857Z,4.75
2019-04-10T12:13:02.601Z,4.75
2019-04-10T12:15:32.344Z,5.15
2019-04-10T12:18:02.334Z,4.47
2019-04-10T12:20:31.380Z,5.05
2019-04-10T12:23:00.765Z,4.53
2019-04-10T12:25:29.720Z,4.35
2019-04-10T12:27:59.129Z,4.92
2019-04-10T12:30:28.905Z,5.20
2019-04-10T12:32:57.946Z,5.05
2019-04-10T12:35:26.786Z,4.67
2019-04-10T12:38:02.217Z,6.10
2019-04-10T12:40:26.599Z,4.78
2019-04-10T12:42:56.632Z,4.50
2019-04-10T12:45:26.442Z,4.92
2019-04-10T12:47:56.473Z,5.25
2019-04-10T12:50:25.480Z,5.15
2019-04-10T12:52:54.747Z,4.62
2019-04-10T12:55:24.344Z,5.08
2019-04-10T12:58:05.476Z,4.33
2019-04-10T13:00:23.905Z,5.12
2019-04-10T13:02:52.808Z,4.47
2019-04-10T13:05:21.878Z,4.97
2019-04-10T13:07:51.849Z,3.98
2019-04-10T13:10:20.825Z,4.08
2019-04-10T13:12:49.761Z,5.08
2019-04-10T13:15:19.299Z,4.97
2019-04-10T13:17:49.026Z,4.12
2019-04-10T13:20:18.081Z,4.03
2019-04-10T13:22:47.025Z,4.30
2019-04-10T13:25:16.371Z,4.80
2019-04-10T13:27:45.330Z,5.12
2019-04-10T13:30:15.000Z,5.47
2019-04-10T13:32:44.457Z,5.22
2019-04-10T13:35:13.962Z,4.22
2019-04-10T13:37:45.418Z,4.37
2019-04-10T13:40:15.273Z,3.92
2019-04-10T13:42:45.344Z,4.53
2019-04-10T13:45:17.537Z,4.25
2019-04-10T13:47:48.073Z,3.60
2019-04-10T13:50:17.192Z,4.60
2019-04-10T13:52:50.704Z,5.85
2019-04-10T13:55:19.019Z,5.33
2019-04-10T13:57:48.032Z,5.00
2019-04-10T14:00:19.636Z,4.62
2019-04-10T14:02:49.929Z,5.65
2019-04-10T14:05:20.004Z,4.72
2019-04-10T14:07:49.316Z,4.40
2019-04-10T14:10:18.822Z,5.70
2019-04-10T14:12:47.760Z,5.50
2019-04-10T14:15:18.369Z,4.78
2019-04-10T14:17:50.027Z,5.00
2019-04-10T14:20:21.735Z,5.28
2019-04-10T14:23:04.399Z,4.78
2019-04-10T14:25:47.702Z,4.47
2019-04-10T14:28:19.288Z,5.90
2019-04-10T14:30:47.889Z,6.00
2019-04-10T14:33:19.111Z,4.87
2019-04-10T14:35:49.489Z,4.17
2019-04-10T14:38:18.968Z,5.62
2019-04-10T14:40:49.188Z,6.28
2019-04-10T14:43:18.776Z,6.95
2019-04-10T14:45:48.075Z,5.45
2019-04-10T14:48:18.232Z,6.17
2019-04-10T14:50:47.302Z,6.17
2019-04-10T14:53:17.198Z,6.33
2019-04-10T14:55:46.208Z,7.12
2019-04-10T14:58:25.168Z,7.03
2019-04-10T15:00:49.428Z,7.22
2019-04-10T15:03:20.259Z,5.92
2019-04-10T15:05:51.422Z,7.25
2019-04-10T15:08:20.001Z,6.65
2019-04-10T15:10:49.017Z,6.92
2019-04-10T15:13:22.868Z,7.33
2019-04-10T15:15:52.985Z,6.92
2019-04-10T15:18:22.572Z,6.03
2019-04-10T15:20:51.464Z,7.47
2019-04-10T15:23:20.481Z,6.30
2019-04-10T15:25:49.526Z,6.53
2019-04-10T15:28:18.462Z,7.40
2019-04-10T15:30:47.321Z,7.80
2019-04-10T15:33:18.361Z,5.62
2019-04-10T15:35:47.837Z,5.97
2019-04-10T15:38:17.888Z,5.45
2019-04-10T15:40:47.393Z,6.58
2019-04-10T15:43:18.626Z,5.85
2019-04-10T15:45:48.385Z,6.92
2019-04-10T15:48:19.025Z,4.97
2019-04-10T15:50:47.866Z,5.58
2019-04-10T15:53:18.024Z,5.45
2019-04-10T15:55:47.645Z,4.87
2019-04-10T15:58:17.321Z,5.28
2019-04-10T16:00:47.880Z,6.10
2019-04-10T16:03:17.542Z,4.80
2019-04-10T16:05:46.576Z,4.58
2019-04-10T16:08:16.298Z,5.17
2019-04-10T16:10:57.052Z,5.05
2019-04-10T16:13:32.470Z,5.47
2019-04-10T16:16:03.164Z,4.47
2019-04-10T16:18:32.560Z,5.33
2019-04-10T16:21:02.119Z,4.62
2019-04-10T16:23:42.123Z,4.10
2019-04-10T16:26:11.289Z,4.20
2019-04-10T16:28:40.288Z,4.17
2019-04-10T16:31:09.219Z,3.60
2019-04-10T16:33:39.094Z,4.80
2019-04-10T16:36:08.561Z,4.00
2019-04-10T16:38:38.531Z,3.77
2019-04-10T16:41:08.316Z,5.03
2019-04-10T16:43:38.282Z,3.75
2019-04-10T16:46:11.206Z,4.05
2019-04-10T16:48:40.210Z,4.35
2019-04-10T16:51:12.102Z,4.67
2019-04-10T16:53:41.325Z,4.47
2019-04-10T16:56:11.753Z,4.40
2019-04-10T16:58:41.697Z,3.92
2019-04-10T17:01:12.565Z,4.15
2019-04-10T17:03:42.102Z,4.22
2019-04-10T17:06:12.476Z,3.35
2019-04-10T17:08:41.369Z,3.83
2019-04-10T17:11:10.482Z,3.70
2019-04-10T17:13:42.542Z,4.58
2019-04-10T17:16:13.454Z,4.50
2019-04-10T17:18:43.425Z,4.37
2019-04-10T17:21:13.086Z,4.20
2019-04-10T17:23:42.801Z,3.58
2019-04-10T17:26:12.962Z,4.25
2019-04-10T17:28:42.748Z,4.28
2019-04-10T17:31:12.204Z,3.52
2019-04-10T17:33:41.905Z,5.15
2019-04-10T17:36:11.957Z,4.62
2019-04-10T17:38:41.065Z,3.85
2019-04-10T17:41:11.231Z,4.22
2019-04-10T17:43:41.795Z,3.45
2019-04-10T17:46:13.226Z,3.47
2019-04-10T17:48:42.681Z,3.62
2019-04-10T17:51:12.393Z,4.78
2019-04-10T17:53:42.090Z,3.92
2019-04-10T17:56:11.876Z,4.42
2019-04-10T17:58:41.610Z,3.67
2019-04-10T18:01:16.647Z,3.92
2019-04-10T18:03:53.124Z,4.33
2019-04-10T18:06:17.697Z,4.28
2019-04-10T18:08:47.254Z,3.27
2019-04-10T18:11:16.712Z,3.77
2019-04-10T18:13:46.931Z,4.08
2019-04-10T18:16:17.552Z,3.47
2019-04-10T18:18:48.606Z,3.95
2019-04-10T18:21:17.809Z,4.15
2019-04-10T18:23:47.441Z,4.30
2019-04-10T18:26:21.467Z,4.00
2019-04-10T18:28:51.897Z,3.58
2019-04-10T18:31:23.691Z,4.00
2019-04-10T18:33:53.012Z,4.75
2019-04-10T18:36:22.297Z,4.10
2019-04-10T18:38:52.503Z,3.70
2019-04-10T18:41:22.082Z,4.60
2019-04-10T18:43:51.144Z,4.83
2019-04-10T18:46:22.331Z,3.45
2019-04-10T18:48:51.613Z,3.83
2019-04-10T18:51:21.524Z,3.75
2019-04-10T18:53:51.241Z,3.65
2019-04-10T18:56:20.821Z,3.75
2019-04-10T18:59:10.192Z,3.45
2019-04-10T19:01:41.176Z,5.47
2019-04-10T19:04:21.018Z,3.08
2019-04-10T19:07:00.786Z,3.90
2019-04-10T19:09:32.490Z,4.03
2019-04-10T19:12:02.463Z,3.02
2019-04-10T19:14:37.175Z,3.83
2019-04-10T19:17:07.401Z,3.12
2019-04-10T19:19:40.337Z,2.85
2019-04-10T19:22:08.080Z,3.77
2019-04-10T19:24:38.794Z,3.08
2019-04-10T19:27:07.697Z,2.62
2019-04-10T19:29:38.251Z,2.40
2019-04-10T19:32:09.924Z,2.62
2019-04-10T19:34:39.341Z,2.45
2019-04-10T19:37:08.633Z,2.37
2019-04-10T19:39:40.708Z,2.98
2019-04-10T19:42:09.713Z,3.65
2019-04-10T19:44:39.314Z,3.55
2019-04-10T19:47:08.674Z,4.42
2019-04-10T19:49:38.774Z,3.70
2019-04-10T19:52:08.882Z,4.20
2019-04-10T19:54:38.772Z,3.60
2019-04-10T19:57:08.945Z,3.52
2019-04-10T19:59:38.257Z,3.80
2019-04-10T20:02:08.727Z,3.15
2019-04-10T20:04:38.814Z,3.75
2019-04-10T20:07:09.021Z,3.90
2019-04-10T20:09:40.959Z,4.17
2019-04-10T20:12:10.793Z,3.72
2019-04-10T20:14:40.879Z,4.05
2019-04-10T20:17:11.405Z,4.00
2019-04-10T20:19:42.438Z,4.22
2019-04-10T20:22:14.779Z,4.50
2019-04-10T20:24:50.794Z,4.45
2019-04-10T20:27:21.785Z,4.78
2019-04-10T20:29:53.134Z,4.85
2019-04-10T20:32:22.167Z,4.72
2019-04-10T20:34:51.754Z,4.42
2019-04-10T20:37:21.360Z,4.05
2019-04-10T20:39:51.728Z,4.17
2019-04-10T20:42:23.598Z,4.08
2019-04-10T20:44:56.826Z,4.30
2019-04-10T20:47:27.033Z,4.53
2019-04-10T20:49:57.178Z,4.30
2019-04-10T20:52:28.378Z,3.33
2019-04-10T20:55:01.399Z,4.20
2019-04-10T20:57:31.947Z,4.83
2019-04-10T21:00:01.892Z,3.80
2019-04-10T21:02:31.711Z,3.27
2019-04-10T21:05:09.673Z,4.78
2019-04-10T21:07:37.696Z,3.90
2019-04-10T21:10:08.642Z,4.03
2019-04-10T21:12:39.780Z,3.35
2019-04-10T21:15:11.491Z,3.17
2019-04-10T21:17:42.364Z,3.37
2019-04-10T21:20:13.565Z,3.35
2019-04-10T21:22:45.157Z,3.35
2019-04-10T21:25:15.514Z,4.00
2019-04-10T21:27:47.622Z,3.83
2019-04-10T21:30:20.025Z,3.72
2019-04-10T21:32:52.897Z,3.50
2019-04-10T21:35:24.973Z,3.65
2019-04-10T21:37:55.032Z,2.65
2019-04-10T21:40:25.166Z,3.90
2019-04-10T21:42:56.025Z,3.00
2019-04-10T21:45:26.482Z,3.00
2019-04-10T21:47:55.954Z,3.08
2019-04-10T21:50:27.526Z,3.80
2019-04-10T21:52:57.515Z,3.22
2019-04-10T21:55:27.057Z,3.08
2019-04-10T21:57:57.619Z,3.30
2019-04-10T22:00:45.490Z,2.42
2019-04-10T22:03:16.838Z,4.17
2019-04-10T22:05:48.668Z,2.72
2019-04-10T22:08:23.288Z,3.30
2019-04-10T22:10:52.912Z,3.35
2019-04-10T22:13:23.929Z,3.87
2019-04-10T22:15:53.745Z,4.45
2019-04-10T22:18:23.353Z,2.98
2019-04-10T22:20:52.867Z,2.85
2019-04-10T22:23:22.426Z,3.58
2019-04-10T22:25:52.228Z,3.72
2019-04-10T22:28:23.170Z,3.30
2019-04-10T22:30:55.265Z,3.65
2019-04-10T22:33:24.690Z,3.05
2019-04-10T22:35:54.308Z,3.33
2019-04-10T22:38:23.659Z,3.02
2019-04-10T22:40:53.653Z,2.98
2019-04-10T22:43:23.124Z,2.70
2019-04-10T22:45:54.864Z,3.58
2019-04-10T22:48:25.073Z,4.05
2019-04-10T22:50:56.385Z,3.12
2019-04-10T22:53:25.818Z,4.30
2019-04-10T22:55:56.330Z,3.80
2019-04-10T22:58:26.721Z,3.58
2019-04-10T23:00:56.312Z,3.90
2019-04-10T23:03:25.595Z,3.45
2019-04-10T23:05:54.793Z,3.62
2019-04-10T23:08:23.833Z,3.20
2019-04-10T23:10:53.785Z,3.15
2019-04-10T23:13:23.748Z,3.00
2019-04-10T23:15:53.089Z,3.37
2019-04-10T23:18:23.485Z,4.53
2019-04-10T23:20:52.768Z,3.33
2019-04-10T23:23:23.061Z,3.35
2019-04-10T23:25:53.036Z,4.22
2019-04-10T23:28:23.116Z,3.72
2019-04-10T23:30:52.948Z,3.98
2019-04-10T23:33:21.976Z,2.77
2019-04-10T23:35:51.826Z,3.02
2019-04-10T23:38:21.603Z,3.60
2019-04-10T23:40:51.524Z,2.72
2019-04-10T23:43:21.617Z,2.60
2019-04-10T23:45:51.168Z,2.92
2019-04-10T23:48:20.430Z,3.40
2019-04-10T23:50:50.300Z,3.50
2019-04-10T23:53:20.248Z,3.58
2019-04-10T23:55:50.344Z,3.30
2019-04-10T23:58:19.955Z,3.67
